createdAt,value
2019-04-20T00:00:06.125Z,8.88
2019-04-20T00:02:32.041Z,10.25
2019-04-20T00:04:59.327Z,11.05
2019-04-20T00:07:30.960Z,11.33
2019-04-20T00:10:03.509Z,10.28
2019-04-20T00:12:36.770Z,11.68
2019-04-20T00:14:54.200Z,9.75
2019-04-20T00:17:22.033Z,9.85
2019-04-20T00:19:53.791Z,10.20
2019-04-20T00:22:36.699Z,8.58
2019-04-20T00:25:03.516Z,10.43
2019-04-20T00:27:43.092Z,9.48
2019-04-20T00:30:06.841Z,10.55
2019-04-20T00:32:44.277Z,9.78
2019-04-20T00:34:53.681Z,10.43
2019-04-20T00:37:21.274Z,10.20
2019-04-20T00:39:48.843Z,10.05
2019-04-20T00:42:17.930Z,10.20
2019-04-20T00:44:49.602Z,9.50
2019-04-20T00:47:25.354Z,9.75
2019-04-20T00:49:52.768Z,10.13
2019-04-20T00:52:27.656Z,9.45
2019-04-20T00:54:41.276Z,10.43
2019-04-20T00:57:21.738Z,10.03
2019-04-20T01:00:03.533Z,9.20
2019-04-20T01:02:22.153Z,9.68
2019-04-20T01:04:53.775Z,10.48
2019-04-20T01:07:24.150Z,10.30
2019-04-20T01:09:58.576Z,9.75
2019-04-20T01:12:28.557Z,11.18
2019-04-20T01:15:00.603Z,10.78
2019-04-20T01:17:23.856Z,11.70
2019-04-20T01:19:52.730Z,11.35
2019-04-20T01:22:24.026Z,12.40
2019-04-20T01:24:51.589Z,10.75
2019-04-20T01:27:32.425Z,11.80
2019-04-20T01:29:51.614Z,10.18
2019-04-20T01:32:27.705Z,11.25
2019-04-20T01:34:55.180Z,11.70
2019-04-20T01:37:27.247Z,10.30
2019-04-20T01:39:48.698Z,11.90
2019-04-20T01:42:12.964Z,11.88
2019-04-20T01:44:45.333Z,11.18
2019-04-20T01:47:11.211Z,11.25
2019-04-20T01:49:39.924Z,11.53
2019-04-20T01:52:17.308Z,10.70
2019-04-20T01:54:59.122Z,11.55
2019-04-20T01:57:26.131Z,11.15
2019-04-20T02:00:14.364Z,11.00
2019-04-20T02:02:46.084Z,11.48
2019-04-20T02:05:16.611Z,10.43
2019-04-20T02:07:43.574Z,11.35
2019-04-20T02:10:11.372Z,11.05
2019-04-20T02:12:39.556Z,10.93
2019-04-20T02:15:08.136Z,11.18
2019-04-20T02:17:40.824Z,11.12
2019-04-20T02:20:23.176Z,11.48
2019-04-20T02:22:51.797Z,11.80
2019-04-20T02:25:03.818Z,11.70
2019-04-20T02:27:39.488Z,12.28
2019-04-20T02:30:30.153Z,13.00
2019-04-20T02:33:09.776Z,12.20
2019-04-20T02:35:52.834Z,12.98
2019-04-20T02:38:24.809Z,12.73
2019-04-20T02:40:53.970Z,13.08
2019-04-20T02:43:22.074Z,12.95
2019-04-20T02:45:48.421Z,12.18
2019-04-20T02:48:13.443Z,12.00
2019-04-20T02:50:44.082Z,12.63
2019-04-20T02:53:23.626Z,12.95
2019-04-20T02:58:00.710Z,13.13
2019-04-20T03:00:44.818Z,12.30
2019-04-20T03:02:48.903Z,12.00
2019-04-20T03:05:21.620Z,12.70
2019-04-20T03:07:57.696Z,13.98
2019-04-20T03:10:33.951Z,13.55
2019-04-20T03:12:59.362Z,13.90
2019-04-20T03:15:27.576Z,13.00
2019-04-20T03:18:00.091Z,12.98
2019-04-20T03:20:28.934Z,13.62
2019-04-20T03:23:17.722Z,13.20
2019-04-20T03:25:44.870Z,13.83
2019-04-20T03:28:10.846Z,13.75
2019-04-20T03:31:21.970Z,14.87
2019-04-20T03:33:35.270Z,14.25
2019-04-20T03:35:58.725Z,14.53
2019-04-20T03:38:14.732Z,14.83
2019-04-20T03:40:39.942Z,14.23
2019-04-20T03:42:54.915Z,14.40
2019-04-20T03:45:24.774Z,13.93
2019-04-20T03:48:03.069Z,14.47
2019-04-20T03:50:41.187Z,14.78
2019-04-20T03:53:12.832Z,15.20
2019-04-20T03:55:39.709Z,15.30
2019-04-20T03:58:17.118Z,14.63
2019-04-20T04:00:42.499Z,15.20
2019-04-20T04:03:36.151Z,13.75
2019-04-20T04:05:52.632Z,14.23
2019-04-20T04:08:19.421Z,14.28
2019-04-20T04:10:56.092Z,13.50
2019-04-20T04:13:14.828Z,15.72
2019-04-20T04:15:48.741Z,14.90
2019-04-20T04:18:17.854Z,15.43
2019-04-20T04:20:47.857Z,15.60
2019-04-20T04:23:28.695Z,14.20
2019-04-20T04:25:58.047Z,13.93
2019-04-20T04:28:27.330Z,14.55
2019-04-20T04:30:59.786Z,14.43
2019-04-20T04:33:50.402Z,14.95
2019-04-20T04:35:52.733Z,14.33
2019-04-20T04:38:28.934Z,14.43
2019-04-20T04:41:04.961Z,14.35
2019-04-20T04:43:19.731Z,13.68
2019-04-20T04:45:33.253Z,13.40
2019-04-20T04:48:01.931Z,14.95
2019-04-20T04:50:31.442Z,14.40
2019-04-20T04:53:06.388Z,14.98
2019-04-20T04:55:39.443Z,14.85
2019-04-20T04:57:56.265Z,14.20
2019-04-20T05:00:28.182Z,15.50
2019-04-20T05:02:56.529Z,15.58
2019-04-20T05:05:46.670Z,15.28
2019-04-20T05:08:02.852Z,15.72
2019-04-20T05:10:22.313Z,14.93
2019-04-20T05:12:50.163Z,15.03
2019-04-20T05:15:32.442Z,15.18
2019-04-20T05:18:05.797Z,15.03
2019-04-20T05:20:41.576Z,15.40
2019-04-20T05:23:03.963Z,14.68
2019-04-20T05:25:50.915Z,15.48
2019-04-20T05:28:18.058Z,14.20
2019-04-20T05:30:41.957Z,14.38
2019-04-20T05:33:07.959Z,14.95
2019-04-20T05:35:49.553Z,14.80
2019-04-20T05:38:22.968Z,14.00
2019-04-20T05:40:50.291Z,13.80
2019-04-20T05:43:27.526Z,14.40
2019-04-20T05:45:55.284Z,14.07
2019-04-20T05:48:25.890Z,13.85
2019-04-20T05:50:58.325Z,14.05
2019-04-20T05:53:33.989Z,15.20
2019-04-20T05:55:54.656Z,14.30
2019-04-20T05:58:26.095Z,15.00
2019-04-20T06:01:00.550Z,14.15
2019-04-20T06:03:20.368Z,15.63
2019-04-20T06:05:59.229Z,15.00
2019-04-20T06:08:34.605Z,18.95
2019-04-20T06:10:50.841Z,13.35
2019-04-20T06:13:32.418Z,44.18
2019-04-20T06:16:07.448Z,14.95
2019-04-20T06:18:45.421Z,14.25
2019-04-20T06:21:29.440Z,14.18
2019-04-20T06:24:02.688Z,15.03
2019-04-20T06:26:44.282Z,13.40
2019-04-20T06:28:55.265Z,14.58
2019-04-20T06:31:34.190Z,12.43
2019-04-20T06:34:27.127Z,16.00
2019-04-20T06:36:46.743Z,17.42
2019-04-20T06:39:16.195Z,11.83
2019-04-20T06:41:51.833Z,11.55
2019-04-20T06:44:14.775Z,11.85
2019-04-20T06:46:45.580Z,11.25
2019-04-20T06:49:10.384Z,12.20
2019-04-20T06:51:54.220Z,10.85
2019-04-20T06:54:12.428Z,12.63
2019-04-20T06:56:54.556Z,12.85
2019-04-20T06:59:27.724Z,10.50
2019-04-20T07:01:59.583Z,12.82
2019-04-20T07:04:42.183Z,13.62
2019-04-20T07:09:22.052Z,10.78
2019-04-20T07:11:46.755Z,10.30
2019-04-20T07:14:01.071Z,10.00
2019-04-20T07:16:54.002Z,10.25
2019-04-20T07:19:28.951Z,9.68
2019-04-20T07:24:47.209Z,9.95
2019-04-20T07:27:13.640Z,10.10
2019-04-20T07:29:46.073Z,10.78
2019-04-20T07:32:01.765Z,10.75
2019-04-20T07:34:40.110Z,10.25
2019-04-20T07:37:43.307Z,10.13
2019-04-20T07:39:40.642Z,9.93
2019-04-20T07:42:08.055Z,10.48
2019-04-20T07:44:42.992Z,9.28
2019-04-20T07:47:13.718Z,9.25
2019-04-20T07:49:37.310Z,9.00
2019-04-20T07:51:45.766Z,8.90
2019-04-20T07:54:40.138Z,9.88
2019-04-20T07:56:58.955Z,9.90
2019-04-20T07:59:19.092Z,9.43
2019-04-20T08:02:11.996Z,9.40
2019-04-20T08:04:28.791Z,8.53
2019-04-20T08:06:50.065Z,9.10
2019-04-20T08:09:21.963Z,8.40
2019-04-20T08:12:03.238Z,8.15
2019-04-20T08:14:46.813Z,7.53
2019-04-20T08:17:14.326Z,7.72
2019-04-20T08:19:27.325Z,8.50
2019-04-20T08:22:03.823Z,8.35
2019-04-20T08:24:26.084Z,6.62
2019-04-20T08:26:43.421Z,7.75
2019-04-20T08:29:19.057Z,7.72
2019-04-20T08:32:15.536Z,7.30
2019-04-20T08:34:50.755Z,7.25
2019-04-20T08:37:06.985Z,6.70
2019-04-20T08:39:53.909Z,7.90
2019-04-20T08:42:11.639Z,7.78
2019-04-20T08:44:56.864Z,7.42
2019-04-20T08:47:32.229Z,8.18
2019-04-20T08:49:41.406Z,7.85
2019-04-20T08:54:31.924Z,6.92
2019-04-20T08:56:51.713Z,7.42
2019-04-20T08:59:13.816Z,6.53
2019-04-20T09:01:42.676Z,7.55
2019-04-20T09:04:16.284Z,10.20
2019-04-20T09:06:52.205Z,8.08
2019-04-20T09:09:37.938Z,7.50
2019-04-20T09:12:00.831Z,6.95
2019-04-20T09:14:23.773Z,6.97
2019-04-20T09:17:00.283Z,7.65
2019-04-20T09:19:29.916Z,7.20
2019-04-20T09:21:57.204Z,7.47
2019-04-20T09:24:43.554Z,7.10
2019-04-20T09:27:04.757Z,6.90
2019-04-20T09:29:32.900Z,7.03
2019-04-20T09:32:11.383Z,6.75
2019-04-20T09:34:51.305Z,6.30
2019-04-20T09:37:16.614Z,7.80
2019-04-20T09:39:35.149Z,6.80
2019-04-20T09:42:03.838Z,7.22
2019-04-20T09:44:38.433Z,7.45
2019-04-20T09:47:03.371Z,7.20
2019-04-20T09:49:42.597Z,6.85
2019-04-20T09:52:13.602Z,6.92
2019-04-20T09:54:45.629Z,7.15
2019-04-20T09:57:13.242Z,7.22
2019-04-20T09:59:44.630Z,7.85
2019-04-20T10:02:03.616Z,7.80
2019-04-20T10:04:23.911Z,7.10
2019-04-20T10:06:51.811Z,6.53
2019-04-20T10:09:21.316Z,6.83
2019-04-20T10:11:49.321Z,7.03
2019-04-20T10:14:17.035Z,7.58
2019-04-20T10:16:44.364Z,7.45
2019-04-20T10:19:12.052Z,7.53
2019-04-20T10:21:41.570Z,7.25
2019-04-20T10:24:08.950Z,7.70
2019-04-20T10:26:36.589Z,6.53
2019-04-20T10:29:03.954Z,7.45
2019-04-20T10:31:35.685Z,7.35
2019-04-20T10:34:00.198Z,7.40
2019-04-20T10:36:35.346Z,7.15
2019-04-20T10:39:02.891Z,9.50
2019-04-20T10:41:40.864Z,12.53
2019-04-20T10:43:59.152Z,9.83
2019-04-20T10:46:26.886Z,12.05
2019-04-20T10:48:56.043Z,8.98
2019-04-20T10:51:23.926Z,8.03
2019-04-20T10:53:51.193Z,8.88
2019-04-20T10:56:19.038Z,10.20
2019-04-20T10:58:47.312Z,7.92
2019-04-20T11:01:15.693Z,8.90
2019-04-20T11:03:43.054Z,7.90
2019-04-20T11:06:11.030Z,8.18
2019-04-20T11:08:38.458Z,6.70
2019-04-20T11:11:12.735Z,9.20
2019-04-20T11:13:35.278Z,7.92
2019-04-20T11:16:02.618Z,7.90
2019-04-20T11:18:31.293Z,8.28
2019-04-20T11:20:59.453Z,8.40
2019-04-20T11:23:26.726Z,8.23
2019-04-20T11:25:54.009Z,8.03
2019-04-20T11:28:21.956Z,8.63
2019-04-20T11:30:50.120Z,18.32
2019-04-20T11:33:18.233Z,12.73
2019-04-20T11:35:46.920Z,11.22
2019-04-20T11:38:17.111Z,8.78
2019-04-20T11:40:44.802Z,11.83
2019-04-20T11:43:13.366Z,8.30
2019-04-20T11:45:40.804Z,8.17
2019-04-20T11:48:09.443Z,8.50
2019-04-20T11:50:37.758Z,9.20
2019-04-20T11:53:05.604Z,16.97
2019-04-20T11:55:34.078Z,10.27
2019-04-20T11:58:10.074Z,7.70
2019-04-20T12:00:56.230Z,7.10
2019-04-20T12:03:33.335Z,8.37
2019-04-20T12:05:57.887Z,11.47
2019-04-20T12:08:35.518Z,7.03
2019-04-20T12:11:22.706Z,7.47
2019-04-20T12:13:36.703Z,7.57
2019-04-20T12:16:04.021Z,8.47
2019-04-20T12:18:31.675Z,8.40
2019-04-20T12:20:59.098Z,7.10
2019-04-20T12:23:26.525Z,7.30
2019-04-20T12:25:54.319Z,7.63
2019-04-20T12:28:22.008Z,7.07
2019-04-20T12:30:49.333Z,6.97
2019-04-20T12:33:17.781Z,7.37
2019-04-20T12:35:45.111Z,6.70
2019-04-20T12:38:12.686Z,9.13
2019-04-20T12:40:40.043Z,7.73
2019-04-20T12:43:07.330Z,8.17
2019-04-20T12:45:35.643Z,8.50
2019-04-20T12:48:03.885Z,7.33
2019-04-20T12:50:31.801Z,8.70
2019-04-20T12:52:59.170Z,7.30
2019-04-20T12:55:26.482Z,7.20
2019-04-20T12:57:54.484Z,6.87
2019-04-20T13:00:21.764Z,9.53
2019-04-20T13:02:49.480Z,7.70
2019-04-20T13:05:17.548Z,7.13
2019-04-20T13:07:49.273Z,7.77
2019-04-20T13:10:14.043Z,7.07
2019-04-20T13:12:50.006Z,7.17
2019-04-20T13:15:36.719Z,6.97
2019-04-20T13:18:05.389Z,7.10
2019-04-20T13:20:33.894Z,6.17
2019-04-20T13:23:03.863Z,6.97
2019-04-20T13:25:30.863Z,5.77
2019-04-20T13:27:58.948Z,8.03
2019-04-20T13:30:26.275Z,5.30
2019-04-20T13:32:53.971Z,5.60
2019-04-20T13:35:22.409Z,6.13
2019-04-20T13:37:50.038Z,6.10
2019-04-20T13:40:17.664Z,5.30
2019-04-20T13:42:45.628Z,5.77
2019-04-20T13:45:12.997Z,5.70
2019-04-20T13:47:41.049Z,5.43
2019-04-20T13:50:09.726Z,5.87
2019-04-20T13:52:38.466Z,5.10
2019-04-20T13:55:06.449Z,5.83
2019-04-20T13:57:47.484Z,5.17
2019-04-20T14:00:22.403Z,5.60
2019-04-20T14:02:58.514Z,6.40
2019-04-20T14:05:33.260Z,5.70
2019-04-20T14:08:00.914Z,4.73
2019-04-20T14:10:29.243Z,5.30
2019-04-20T14:13:03.046Z,5.93
2019-04-20T14:15:26.935Z,4.73
2019-04-20T14:17:55.234Z,5.47
2019-04-20T14:20:23.877Z,5.33
2019-04-20T14:22:52.485Z,4.90
2019-04-20T14:25:20.845Z,4.67
2019-04-20T14:27:48.710Z,5.10
2019-04-20T14:30:17.072Z,5.03
2019-04-20T14:32:45.037Z,5.00
2019-04-20T14:35:12.377Z,4.57
2019-04-20T14:37:39.702Z,4.73
2019-04-20T14:40:08.176Z,5.53
2019-04-20T14:42:44.073Z,4.57
2019-04-20T14:45:06.689Z,5.70
2019-04-20T14:47:34.139Z,5.03
2019-04-20T14:50:03.077Z,5.50
2019-04-20T14:52:31.429Z,5.37
2019-04-20T14:54:59.539Z,5.83
2019-04-20T14:57:27.627Z,4.97
2019-04-20T15:00:13.740Z,4.87
2019-04-20T15:02:41.030Z,5.10
2019-04-20T15:05:08.310Z,5.00
2019-04-20T15:07:36.447Z,5.10
2019-04-20T15:10:04.873Z,4.53
2019-04-20T15:12:43.277Z,5.37
2019-04-20T15:15:01.149Z,4.80
2019-04-20T15:17:35.865Z,4.57
2019-04-20T15:20:08.116Z,4.80
2019-04-20T15:22:37.035Z,4.40
2019-04-20T15:25:05.459Z,5.40
2019-04-20T15:27:33.213Z,5.10
2019-04-20T15:30:00.519Z,4.40
2019-04-20T15:32:29.071Z,4.10
2019-04-20T15:34:57.167Z,4.63
2019-04-20T15:37:24.516Z,3.50
2019-04-20T15:39:52.839Z,4.30
2019-04-20T15:42:21.239Z,4.20
2019-04-20T15:44:49.286Z,4.03
2019-04-20T15:47:17.387Z,5.57
2019-04-20T15:49:46.114Z,4.93
2019-04-20T15:52:17.889Z,4.13
2019-04-20T15:54:43.415Z,4.47
2019-04-20T15:57:16.624Z,3.93
2019-04-20T15:59:40.218Z,3.93
2019-04-20T16:02:21.233Z,3.87
2019-04-20T16:04:56.483Z,3.83
2019-04-20T16:07:23.824Z,3.60
2019-04-20T16:09:51.637Z,4.40
2019-04-20T16:12:20.693Z,3.63
2019-04-20T16:14:49.305Z,4.33
2019-04-20T16:17:17.382Z,4.13
2019-04-20T16:19:52.218Z,4.57
2019-04-20T16:22:13.738Z,4.87
2019-04-20T16:24:59.258Z,4.70
2019-04-20T16:27:34.159Z,4.27
2019-04-20T16:30:02.094Z,4.30
2019-04-20T16:32:30.409Z,4.30
2019-04-20T16:34:58.291Z,5.17
2019-04-20T16:37:26.456Z,4.60
2019-04-20T16:39:54.631Z,4.60
2019-04-20T16:42:22.315Z,4.80
2019-04-20T16:44:49.634Z,5.28
2019-04-20T16:47:18.340Z,5.47
2019-04-20T16:49:46.723Z,4.35
2019-04-20T16:52:14.935Z,5.15
2019-04-20T16:54:42.316Z,4.97
2019-04-20T16:57:12.294Z,4.92
2019-04-20T16:59:44.486Z,4.47
2019-04-20T17:02:08.669Z,5.67
2019-04-20T17:04:37.393Z,4.72
2019-04-20T17:07:16.591Z,4.55
2019-04-20T17:09:45.962Z,4.75
2019-04-20T17:12:15.414Z,5.22
2019-04-20T17:14:43.318Z,5.03
2019-04-20T17:17:11.572Z,5.75
2019-04-20T17:19:39.908Z,4.83
2019-04-20T17:22:07.543Z,5.20
2019-04-20T17:24:35.652Z,5.22
2019-04-20T17:27:05.328Z,5.22
2019-04-20T17:29:52.874Z,4.47
2019-04-20T17:32:23.006Z,5.22
2019-04-20T17:35:04.670Z,4.87
2019-04-20T17:37:20.595Z,4.90
2019-04-20T17:40:09.057Z,4.78
2019-04-20T17:42:33.405Z,5.30
2019-04-20T17:44:57.594Z,3.85
2019-04-20T17:47:32.627Z,4.75
2019-04-20T17:50:06.895Z,4.90
2019-04-20T17:52:38.699Z,5.17
2019-04-20T17:54:45.231Z,4.83
2019-04-20T17:57:13.083Z,6.17
2019-04-20T17:59:47.114Z,5.28
2019-04-20T18:02:25.532Z,6.45
2019-04-20T18:05:12.728Z,5.30
2019-04-20T18:07:36.635Z,5.92
2019-04-20T18:10:05.394Z,5.72
2019-04-20T18:12:23.774Z,6.65
2019-04-20T18:14:53.553Z,7.90
2019-04-20T18:17:32.657Z,6.65
2019-04-20T18:20:00.931Z,6.70
2019-04-20T18:22:29.633Z,6.65
2019-04-20T18:25:22.323Z,6.40
2019-04-20T18:27:42.674Z,6.17
2019-04-20T18:30:12.101Z,6.90
2019-04-20T18:32:27.497Z,6.30
2019-04-20T18:35:00.866Z,6.22
2019-04-20T18:37:26.831Z,6.50
2019-04-20T18:40:01.098Z,6.30
2019-04-20T18:42:30.070Z,7.25
2019-04-20T18:45:08.940Z,6.92
2019-04-20T18:47:42.149Z,6.12
2019-04-20T18:50:01.146Z,6.33
2019-04-20T18:52:19.781Z,6.25
2019-04-20T18:54:49.754Z,7.03
2019-04-20T18:57:20.457Z,6.60
2019-04-20T18:59:49.216Z,7.90
2019-04-20T19:02:20.055Z,6.85
2019-04-20T19:04:43.866Z,8.68
2019-04-20T19:07:12.025Z,7.28
2019-04-20T19:09:39.749Z,6.85
2019-04-20T19:12:12.593Z,6.65
2019-04-20T19:14:49.565Z,7.62
2019-04-20T19:17:46.672Z,6.95
2019-04-20T19:20:24.719Z,8.53
2019-04-20T19:22:50.091Z,7.80
2019-04-20T19:25:25.692Z,8.30
2019-04-20T19:27:50.806Z,9.10
2019-04-20T19:30:27.632Z,8.15
2019-04-20T19:33:01.085Z,8.53
2019-04-20T19:35:28.733Z,8.13
2019-04-20T19:37:57.073Z,8.58
2019-04-20T19:40:24.623Z,8.10
2019-04-20T19:42:54.475Z,9.35
2019-04-20T19:45:40.992Z,8.98
2019-04-20T19:47:55.359Z,9.13
2019-04-20T19:50:35.545Z,8.85
2019-04-20T19:53:05.706Z,8.33
2019-04-20T19:55:25.902Z,9.90
2019-04-20T19:57:50.786Z,8.68
2019-04-20T20:00:06.441Z,9.08
2019-04-20T20:02:35.916Z,8.43
2019-04-20T20:05:08.684Z,8.50
2019-04-20T20:07:40.203Z,7.80
2019-04-20T20:10:05.859Z,7.62
2019-04-20T20:12:31.561Z,8.65
2019-04-20T20:14:59.553Z,8.98
2019-04-20T20:17:48.309Z,8.20
2019-04-20T20:20:20.265Z,7.75
2019-04-20T20:22:32.019Z,6.92
2019-04-20T20:24:54.907Z,8.10
2019-04-20T20:27:31.788Z,8.33
2019-04-20T20:29:59.531Z,7.62
2019-04-20T20:32:38.831Z,8.38
2019-04-20T20:34:56.082Z,7.42
2019-04-20T20:37:27.245Z,8.40
2019-04-20T20:39:59.612Z,8.40
2019-04-20T20:42:30.927Z,8.90
2019-04-20T20:44:52.422Z,7.83
2019-04-20T20:47:36.840Z,7.75
2019-04-20T20:50:07.993Z,7.72
2019-04-20T20:52:27.358Z,7.40
2019-04-20T20:54:52.777Z,7.37
2019-04-20T20:57:15.413Z,8.25
2019-04-20T20:59:49.407Z,7.70
2019-04-20T21:02:15.851Z,7.60
2019-04-20T21:04:37.629Z,7.60
2019-04-20T21:07:04.969Z,6.83
2019-04-20T21:09:33.437Z,8.05
2019-04-20T21:12:07.026Z,8.38
2019-04-20T21:14:34.709Z,9.80
2019-04-20T21:17:05.456Z,7.53
2019-04-20T21:19:50.217Z,8.10
2019-04-20T21:22:06.688Z,7.60
2019-04-20T21:24:28.655Z,8.25
2019-04-20T21:26:59.676Z,8.53
2019-04-20T21:29:31.515Z,9.20
2019-04-20T21:32:01.633Z,8.30
2019-04-20T21:34:24.175Z,7.40
2019-04-20T21:36:55.337Z,7.90
2019-04-20T21:39:31.267Z,7.97
2019-04-20T21:41:57.247Z,8.93
2019-04-20T21:44:24.728Z,9.08
2019-04-20T21:46:52.899Z,8.00
2019-04-20T21:49:33.504Z,7.70
2019-04-20T21:51:54.437Z,8.35
2019-04-20T21:54:15.981Z,8.35
2019-04-20T21:56:51.945Z,8.93
2019-04-20T21:59:20.804Z,7.55
2019-04-20T22:01:51.705Z,8.48
2019-04-20T22:04:10.387Z,9.75
2019-04-20T22:06:38.215Z,8.55
2019-04-20T22:09:09.102Z,9.23
2019-04-20T22:11:37.865Z,9.30
2019-04-20T22:14:11.459Z,9.73
2019-04-20T22:16:38.942Z,9.55
2019-04-20T22:19:17.244Z,8.50
2019-04-20T22:21:46.282Z,8.50
2019-04-20T22:24:15.479Z,10.13
2019-04-20T22:26:39.783Z,10.55
2019-04-20T22:29:00.347Z,8.68
2019-04-20T22:31:27.750Z,9.78
2019-04-20T22:33:56.261Z,9.63
2019-04-20T22:36:27.426Z,10.35
2019-04-20T22:39:13.834Z,9.63
2019-04-20T22:41:46.742Z,9.93
2019-04-20T22:44:15.478Z,9.08
2019-04-20T22:46:42.743Z,9.35
2019-04-20T22:49:29.477Z,8.90
2019-04-20T22:51:48.470Z,10.72
2019-04-20T22:54:23.167Z,8.73
2019-04-20T22:56:51.169Z,9.98
2019-04-20T22:59:13.169Z,8.23
2019-04-20T23:01:41.870Z,9.33
2019-04-20T23:04:04.356Z,8.73
2019-04-20T23:06:36.183Z,8.95
2019-04-20T23:09:04.817Z,8.48
2019-04-20T23:11:33.271Z,9.30
2019-04-20T23:13:58.668Z,9.25
2019-04-20T23:16:29.937Z,9.43
2019-04-20T23:18:56.161Z,9.55
2019-04-20T23:21:23.907Z,10.28
2019-04-20T23:23:53.691Z,10.60
2019-04-20T23:26:29.324Z,8.98
2019-04-20T23:28:52.523Z,9.48
2019-04-20T23:31:20.609Z,9.88
2019-04-20T23:33:47.746Z,10.50
2019-04-20T23:36:19.322Z,10.18
2019-04-20T23:38:49.953Z,10.32
2019-04-20T23:41:13.555Z,9.68
2019-04-20T23:43:43.017Z,10.18
2019-04-20T23:46:20.931Z,10.95
2019-04-20T23:48:46.475Z,10.93
2019-04-20T23:51:36.775Z,10.35
2019-04-20T23:53:53.882Z,10.80
2019-04-20T23:56:16.761Z,10.55
2019-04-20T23:58:46.616Z,10.03
